x

Big Bay, Mi (bigm4) Weather Station

2:40pm - Wed 1st Oct 2014 All times are CDT. -5 hours from GMT.

  • Wind
    11mph, 21mph gusts
  • Air Temp 59°f
  • Sea Pressure 1011.2mb
  • Big Bay, Mi
  • Big Bay, Mi

More Historic Weather Station data

Upgrade to MSW Pro to gain access to the past 30 days of data for over 8000 Wavebouys and Weather Stations around the globe.

Join Pro

Comparision Forecast

View Surf forecast
   
Wed 10/01 2:40pm 11 21 mph 1011.2mb 59f
2:30pm 15 20 mph 1011.2mb 58f
2:20pm 10 17 mph 1011.2mb 58f
2:10pm 9 18 mph 1011.5mb 58f
2:00pm 13 23 mph 1011.9mb 58f
1:40pm 8 20 mph 1012.2mb 58f
1:30pm 13 21 mph 1012.2mb 58f
1:20pm 18 29 mph 1012.2mb 58f
1:12pm 13 29 mph 1012.2mb 58f
1:10pm 10 20 mph 1012.2mb 58f
1:00pm 9 21 mph 1012.5mb 58f
12:40pm 9 17 mph 1012.9mb 58f
12:30pm 10 18 mph 1012.9mb 58f
12:20pm 7 14 mph 1012.9mb 58f
12:10pm 8 17 mph 1012.9mb 57f
12:00pm 7 15 mph 1013.2mb 57f
11:40am 14 24 mph 1013.2mb 56f
11:30am 8 14 mph 1013.5mb 57f
11:20am 10 18 mph 1013.5mb 56f
11:10am 8 21 mph 1013.9mb 57f
11:00am 14 18 mph 1013.9mb 56f
10:40am 8 14 mph 1013.9mb 55f
10:30am 5 13 mph 1014.2mb 55f
10:20am 11 16 mph 1014.2mb 54f
10:10am 7 15 mph 1014.6mb 54f
10:00am 10 16 mph 1014.6mb 54f
9:40am 13 18 mph 1014.2mb 54f
9:30am 10 18 mph 1014.2mb 54f
9:20am 11 17 mph 1014.6mb 54f
9:10am 8 16 mph 1014.6mb 54f
9:00am 7 16 mph 1014.6mb 54f
8:40am 7 10 mph 1014.6mb 53f
8:30am 6 8 mph 1014.6mb 53f
8:20am 3 7 mph 1014.6mb 53f
8:10am 3 7 mph 1014.6mb 53f
8:00am 3 7 mph 1014.6mb 52f
7:40am 6 8 mph 1014.6mb 52f
7:30am 3 9 mph 1014.6mb 52f
7:20am 7 9 mph 1014.6mb 52f
7:10am 7 11 mph 1014.9mb 52f
7:00am 6 11 mph 1014.9mb 52f
6:40am 5 7 mph 1014.9mb 52f
6:30am 5 7 mph 1014.9mb 51f
6:20am 3 5 mph 1014.6mb 51f
6:10am 2 6 mph 1014.6mb 51f
6:00am 3 5 mph 1014.6mb 51f
5:40am 2 5 mph 1014.6mb 51f
5:30am 2 8 mph 1014.2mb 51f
5:20am 3 5 mph 1014.2mb 51f
5:10am 2 7 mph 1014.6mb 51f
5:00am 3 8 mph 1014.2mb 51f
4:40am 5 8 mph 1014.6mb 51f
4:30am 6 9 mph 1014.6mb 51f
4:20am 6 9 mph 1014.6mb 51f
4:10am 5 7 mph 1014.6mb 51f
4:00am 6 9 mph 1014.6mb 50f
3:40am 6 9 mph 1014.9mb 51f
3:30am 6 10 mph 1014.9mb 51f
3:20am 8 11 mph 1014.9mb 51f
3:10am 7 9 mph 1014.9mb 50f
3:00am 6 9 mph 1015.2mb 50f
2:40am 7 8 mph 1015.2mb 50f
2:30am 5 9 mph 1015.6mb 50f
2:20am 3 7 mph 1015.9mb 50f
2:10am 3 7 mph 1015.9mb 50f
2:00am 5 9 mph 1015.9mb 50f
1:40am 5 9 mph 1015.9mb 49f
1:30am 5 7 mph 1015.9mb 49f
1:20am 3 6 mph 1015.9mb 49f
1:10am 2 5 mph 1015.9mb 49f
1:00am 2 7 mph 1016.3mb 49f
12:40am  -  6 mph 1016.3mb 48f
12:30am 2 6 mph 1016.3mb 48f
12:20am 3 6 mph 1016.3mb 48f
12:10am 3 7 mph 1016.6mb 48f
12:00am 3 6 mph 1016.6mb 47f
Tue 09/30 11:40pm 5 8 mph 1016.6mb 47f
11:30pm 5 10 mph 1016.9mb 47f
11:20pm 3 8 mph 1016.9mb 47f
11:10pm 2 8 mph 1016.9mb 47f
11:00pm 5 7 mph 1016.9mb 47f
10:40pm 2 5 mph 1016.9mb 46f
10:30pm 1 2 mph 1016.9mb 47f
10:20pm  -  2 mph 1016.9mb 46f
10:10pm 2 5 mph 1016.6mb 46f
10:00pm  -  2 mph 1016.9mb 46f
9:40pm 1 3 mph 1016.9mb 45f
9:30pm 2 5 mph 1016.9mb 45f
9:20pm 2 8 mph 1016.9mb 45f
9:10pm 6 8 mph 1016.9mb 44f
9:00pm 5 8 mph 1017.3mb 44f
8:40pm 8 13 mph 1017.3mb 44f
8:30pm 7 9 mph 1017.3mb 43f
8:20pm 2 5 mph 1017.3mb 43f
8:10pm 1 3 mph 1017.3mb 43f
8:00pm 2 3 mph 1017.3mb 43f
7:40pm 2 5 mph 1017.3mb 43f
7:30pm 2 5 mph 1017.3mb 44f
7:20pm  -  6 mph 1017.3mb 44f
7:10pm 2 6 mph 1017.3mb 44f
7:00pm 2 7 mph 1017.3mb 44f
5:40pm 2 5 mph 1017.6mb 47f
5:30pm 2 5 mph 1017.6mb 50f
5:20pm  -  6 mph 1017.6mb 50f
5:10pm 2 5 mph 1017.9mb 50f
5:00pm 1 5 mph 1017.9mb 49f
4:40pm  -  3 mph 1017.9mb 48f
4:30pm 2 5 mph 1017.9mb 48f
4:20pm 2 8 mph 1017.9mb 48f
4:10pm 2 7 mph 1017.9mb 48f
4:00pm 2 8 mph 1017.9mb 48f
3:40pm 2 6 mph 1017.9mb 49f
3:30pm 1 7 mph 1017.9mb 48f
3:20pm 1 6 mph 1018.3mb 48f
3:10pm  -  3 mph 1018.3mb 48f
3:00pm  -  5 mph 1018.3mb 47f
2:50pm 3 7 mph 1018.3mb 48f
2:40pm 5 7 mph 1018.3mb 48f
2:30pm 3 8 mph 1018.6mb 48f
2:20pm 5 9 mph 1018.3mb 48f
2:10pm 5 8 mph 1018.6mb 48f
2:00pm 5 7 mph 1018.6mb 48f
1:50pm 5 7 mph 1018.6mb 48f
1:40pm 2 10 mph 1018.6mb 48f
1:30pm 5 11 mph 1018.6mb 48f
1:20pm 7 9 mph 1019mb 47f
1:10pm 5 8 mph 1019mb 48f
1:00pm 7 11 mph 1019mb 48f
12:50pm 6 8 mph 1019mb 48f
12:40pm 2 9 mph 1019.3mb 47f
12:30pm 6 10 mph 1019.3mb 48f
12:20pm 7 8 mph 1019.3mb 47f
12:10pm 6 9 mph 1019.6mb 47f
12:00pm 3 9 mph 1019.6mb 47f
11:50am 5 8 mph 1019.6mb 47f
11:40am 6 9 mph 1019.6mb 47f
11:30am 6 8 mph 1019.6mb 47f
11:20am 5 7 mph 1020mb 47f
11:10am 5 7 mph 1020mb 47f
11:00am 3 8 mph 1020mb 47f
10:50am 1 8 mph 1019.6mb 47f
10:40am 1 9 mph 1020mb 47f
10:30am 6 9 mph 1020mb 46f
10:20am 6 9 mph 1020mb 46f
10:10am 2 8 mph 1020mb 47f
10:00am 7 10 mph 1020mb 46f
9:50am 7 10 mph 1020mb 46f
9:40am 10 13 mph 1020mb 46f
9:30am 1 9 mph 1020mb 46f
9:20am 8 13 mph 1020mb 46f
9:10am  -  13 mph 1020mb 46f
9:00am 3 11 mph 1020mb 46f
8:50am 6 10 mph 1020mb 46f
8:40am 8 11 mph 1020mb 45f
8:30am 8 14 mph 1020mb 45f
8:20am 8 11 mph 1020mb 45f
8:10am 7 13 mph 1020mb 45f
8:00am 8 13 mph 1020mb 45f
7:50am 13 14 mph 1020mb 45f
7:40am 8 14 mph 1019.6mb 45f
7:30am 5 14 mph 1020mb 45f
7:20am 2 15 mph 1020mb 45f
7:10am 7 16 mph 1020mb 45f
7:00am 8 14 mph 1019.6mb 45f
6:50am 8 13 mph 1019.6mb 45f
6:40am 9 15 mph 1019.6mb 45f
6:30am  -  16 mph 1019.6mb 45f
6:20am 9 15 mph 1019.6mb 45f
6:10am 3 9 mph 1020mb 45f
6:00am 9 14 mph 1019.6mb 45f
5:50am 3 11 mph 1019.6mb 45f
5:40am 3 13 mph 1019.6mb 45f
5:30am 7 13 mph 1020mb 45f
5:20am 6 9 mph 1020mb 45f
5:10am  -  13 mph 1020mb 45f
5:00am 11 15 mph 1020mb 45f
4:50am 10 16 mph 1019.6mb 45f
4:40am 13 16 mph 1019.6mb 45f
4:30am 8 15 mph 1020mb 45f
4:20am 3 15 mph 1019.6mb 45f
4:10am 8 16 mph 1019.6mb 45f
4:00am 13 16 mph 1019.6mb 45f
3:50am 7 10 mph 1019.6mb 45f
3:40am 1 13 mph 1020mb 45f
3:30am 3 15 mph 1019.6mb 45f
3:20am 6 11 mph 1019.6mb 44f
3:10am 6 11 mph 1019.6mb 44f
3:00am 8 15 mph 1020mb 44f
2:50am 10 17 mph 1019.6mb 44f
2:40am 6 15 mph 1019.6mb 44f
2:30am 9 14 mph 1020mb 44f
2:20am 5 13 mph 1020mb 44f
2:10am 10 16 mph 1020mb 44f
2:00am 9 15 mph 1020mb 44f
1:50am 8 17 mph 1020mb 45f
1:40am 13 17 mph 1020.3mb 44f
1:30am 10 16 mph 1020.3mb 44f
1:20am 10 17 mph 1020.3mb 44f
1:10am 14 20 mph 1020.3mb 44f
1:00am 14 18 mph 1020.3mb 44f
12:50am 13 21 mph 1020.3mb 44f
12:40am 13 21 mph 1020.3mb 44f
12:30am 14 17 mph 1020.3mb 44f
12:20am 16 18 mph 1020.3mb 44f
12:10am 15 21 mph 1020.3mb 44f
12:00am 15 18 mph 1020.7mb 44f
Mon 09/29 11:50pm 14 17 mph 1020.3mb 45f
11:40pm 11 17 mph 1020.3mb 44f
11:30pm 11 18 mph 1020.3mb 44f
11:20pm 14 18 mph 1020.3mb 45f
11:10pm 15 20 mph 1020.3mb 44f
11:00pm 18 22 mph 1020.7mb 44f
10:50pm 16 23 mph 1020.7mb 45f
10:40pm 16 21 mph 1020.7mb 45f
10:30pm 13 23 mph 1020.7mb 44f
10:20pm 14 22 mph 1020.7mb 45f
10:10pm 20 22 mph 1020.7mb 45f
10:00pm 17 23 mph 1020.7mb 45f
9:50pm 14 22 mph 1020.7mb 45f
9:40pm 15 23 mph 1020.7mb 45f
9:30pm 20 24 mph 1020.7mb 45f
9:20pm 20 23 mph 1020.7mb 45f
9:10pm 18 23 mph 1020.7mb 45f
9:00pm 17 22 mph 1020.3mb 45f
8:50pm 17 23 mph 1020.7mb 45f
8:40pm 18 23 mph 1020.7mb 45f
8:30pm 17 22 mph 1020.7mb 45f
8:20pm 17 22 mph 1020.7mb 45f
8:10pm 17 21 mph 1020.7mb 45f
8:00pm 18 24 mph 1020.7mb 44f
7:50pm 15 22 mph 1020.7mb 44f
7:40pm 16 22 mph 1020.7mb 44f
7:30pm 15 24 mph 1020.7mb 44f
7:20pm 18 23 mph 1020.3mb 44f
7:10pm 23 26 mph 1020.3mb 44f
7:00pm 20 24 mph 1020.3mb 45f
6:50pm 21 25 mph 1020.3mb 44f
6:40pm 18 23 mph 1020.3mb 44f
6:30pm 20 22 mph 1020.3mb 45f
6:20pm 18 26 mph 1020.3mb 44f
6:10pm 16 24 mph 1020.3mb 44f
6:00pm 17 26 mph 1020.3mb 44f
5:50pm 18 23 mph 1020.3mb 44f
5:40pm 18 25 mph 1020.3mb 44f
5:30pm 21 24 mph 1020.3mb 45f
5:20pm 20 24 mph 1020.3mb 44f
5:10pm 18 23 mph 1020mb 44f
5:00pm 18 23 mph 1020mb 44f
4:50pm 17 23 mph 1020.3mb 44f
4:40pm 20 24 mph 1020.3mb 44f
4:30pm 18 24 mph 1020mb 44f
4:20pm 17 23 mph 1020mb 44f
4:10pm 20 24 mph 1020mb 44f
4:00pm 17 25 mph 1020mb 44f
3:50pm 20 24 mph 1020mb 44f
3:40pm 21 26 mph 1020mb 44f
3:30pm 21 25 mph 1020mb 44f
3:20pm 21 26 mph 1019.6mb 44f
3:10pm 21 26 mph 1019.6mb 44f
3:00pm 21 25 mph 1019.6mb 44f
2:50pm 21 26 mph 1019.6mb 44f
2:40pm 20 25 mph 1019.6mb 44f
2:30pm 21 25 mph 1019.6mb 44f
2:20pm 23 25 mph 1019.6mb 44f
2:10pm 21 25 mph 1019.6mb 44f
2:00pm 20 24 mph 1019.6mb 44f
1:50pm 20 23 mph 1020mb 44f
1:40pm 20 25 mph 1020mb 44f
1:30pm 20 24 mph 1020mb 44f
1:20pm 21 24 mph 1020mb 44f
1:10pm 18 25 mph 1020mb 44f
1:00pm 18 23 mph 1020mb 44f
12:50pm 18 22 mph 1019.6mb 44f
12:40pm 17 23 mph 1020mb 44f
12:30pm 18 23 mph 1020mb 44f
12:20pm 18 23 mph 1020mb 44f
12:10pm 20 24 mph 1019.6mb 44f
12:00pm 21 23 mph 1019.6mb 44f
11:50am 21 23 mph 1019.6mb 44f
11:40am 18 23 mph 1019.6mb 45f
11:30am 20 23 mph 1019.6mb 45f
11:20am 21 23 mph 1019.6mb 45f
11:10am 20 25 mph 1019.6mb 44f
11:00am 21 24 mph 1019.6mb 45f
10:50am 20 24 mph 1019.6mb 45f
10:40am 20 23 mph 1019.3mb 45f
10:30am 20 23 mph 1019.3mb 45f
10:20am 18 23 mph 1019.3mb 45f
10:10am 18 23 mph 1019.6mb 45f
10:00am 18 22 mph 1019.3mb 45f
9:50am 18 23 mph 1019.3mb 45f
9:40am 17 22 mph 1019.3mb 45f
9:30am 17 23 mph 1019.3mb 45f
9:20am 18 23 mph 1019.3mb 45f
9:10am 20 23 mph 1019mb 45f
9:00am 18 22 mph 1019mb 45f
8:50am 17 23 mph 1019mb 45f
8:40am 20 22 mph 1019mb 45f
8:30am 18 22 mph 1019mb 45f
8:20am 18 23 mph 1019mb 46f
8:10am 20 22 mph 1018.6mb 46f
8:00am 18 22 mph 1018.6mb 46f
7:50am 16 22 mph 1018.6mb 46f
7:40am 20 22 mph 1018.6mb 46f
7:30am 20 21 mph 1018.6mb 46f
7:20am 18 22 mph 1018.3mb 46f
7:10am 17 22 mph 1018.3mb 46f
7:00am 16 20 mph 1018.3mb 46f
6:50am 16 20 mph 1018.3mb 46f
6:40am 16 20 mph 1017.9mb 47f
6:30am 17 20 mph 1017.9mb 47f
6:20am 17 21 mph 1017.9mb 47f
6:10am 17 21 mph 1017.9mb 47f
6:00am 18 22 mph 1017.9mb 47f
5:50am 18 22 mph 1017.9mb 47f
5:40am 16 21 mph 1017.9mb 47f
5:30am 16 18 mph 1017.9mb 47f
5:20am 17 20 mph 1017.6mb 47f
5:10am 18 21 mph 1017.6mb 47f
5:00am 16 20 mph 1017.6mb 47f
4:50am 16 20 mph 1017.3mb 47f
4:40am 16 23 mph 1017.3mb 47f
4:30am 18 22 mph 1017.6mb 47f
4:20am 18 22 mph 1017.3mb 47f
4:10am 18 22 mph 1017.6mb 48f
4:00am 18 22 mph 1017.3mb 48f
3:50am 18 23 mph 1017.3mb 48f
3:40am 20 22 mph 1017.3mb 48f
3:30am 21 23 mph 1017.3mb 48f
3:20am 18 21 mph 1017.3mb 48f
3:10am 17 21 mph 1016.9mb 49f
3:00am 15 18 mph 1016.9mb 49f
2:50am 15 17 mph 1016.9mb 49f
2:40am 15 18 mph 1016.6mb 49f
2:30am 15 16 mph 1016.6mb 50f
2:20am 15 18 mph 1016.6mb 50f
2:10am 15 18 mph 1016.6mb 50f
2:00am 14 18 mph 1016.6mb 50f
1:50am 16 18 mph 1016.6mb 51f
1:40am 14 16 mph 1016.6mb 51f
1:30am 14 15 mph 1016.6mb 51f
1:20am 11 15 mph 1016.6mb 52f
1:10am 11 16 mph 1016.6mb 52f
1:00am 14 17 mph 1016.6mb 52f
12:50am 14 16 mph 1016.6mb 52f
12:40am 14 15 mph 1016.6mb 52f
12:30am 11 15 mph 1016.3mb 52f
12:20am 10 13 mph 1016.3mb 52f
12:10am 7 9 mph 1015.9mb 52f
12:00am 6 9 mph 1016.3mb 52f
Sun 09/28 11:50pm 6 10 mph 1016.3mb 52f
11:40pm 6 9 mph 1016.3mb 52f
11:30pm 3 8 mph 1016.3mb 52f
11:20pm 8 11 mph 1016.3mb 52f
11:10pm 6 13 mph 1016.3mb 52f
11:00pm 7 10 mph 1016.3mb 52f
10:50pm 9 14 mph 1016.3mb 53f
10:40pm 11 18 mph 1016.3mb 54f
10:30pm 9 14 mph 1016.6mb 54f
10:20pm 5 8 mph 1016.6mb 54f
10:10pm 1 13 mph 1015.9mb 54f
10:00pm 11 14 mph 1015.9mb 54f
9:50pm 10 13 mph 1015.9mb 54f
9:40pm 10 11 mph 1015.9mb 55f
9:30pm 10 13 mph 1015.6mb 55f
9:20pm 10 13 mph 1015.6mb 55f
9:10pm 10 11 mph 1015.6mb 56f
9:00pm 5
mph
1015.6mb 56f
8:50pm 3 7 mph 1015.6mb 57f
8:40pm 8 10 mph 1015.9mb 57f
8:30pm 10 11 mph 1015.9mb 57f
8:20pm 5 6 mph 1015.9mb 57f
8:10pm 3 6 mph 1015.6mb 57f
8:00pm 1 8 mph 1015.6mb 58f
7:50pm 8 9 mph 1015.6mb 58f
7:40pm  -  1 mph 1015.6mb 59f
7:30pm  -  3 mph 1015.9mb 59f
7:20pm  -  3 mph 1015.9mb 60f
7:10pm 2 3 mph 1015.6mb 60f
7:00pm  -  2 mph 1015.9mb 60f
6:50pm 3 5 mph 1015.9mb 60f
6:40pm 3 8 mph 1015.9mb 61f
6:30pm  -  3 mph 1015.9mb 62f
6:20pm  -  3 mph 1015.9mb 62f
6:10pm 2 6 mph 1015.9mb 62f
6:00pm  -  3 mph 1015.9mb 62f
5:50pm 5 6 mph 1015.9mb 62f
5:40pm  -  3 mph 1015.6mb 63f
5:30pm 1 5 mph 1015.6mb 63f
5:20pm 2 5 mph 1015.6mb 64f
5:10pm 3 8 mph 1015.6mb 62f
5:00pm 5 9 mph 1015.6mb 63f
4:50pm 2 11 mph 1015.6mb 64f
4:40pm 7 11 mph 1015.6mb 66f
4:30pm 10 13 mph 1015.6mb 69f
4:20pm 11 15 mph 1015.2mb 75f
4:10pm 1 2 mph 1015.2mb 77f
4:00pm 1 2 mph 1015.6mb 78f
3:50pm 1 2 mph 1015.6mb 78f
3:40pm  -  2 mph 1015.6mb 75f
3:30pm 1 2 mph 1015.6mb 75f
3:20pm 2 5 mph 1015.6mb 76f
3:10pm  -  5 mph 1015.9mb 77f
3:00pm 3 5 mph 1015.9mb 76f
2:50pm 2 5 mph 1016.3mb 73f
2:40pm 1 2 mph 1016.3mb 70f
2:30pm  -  1 mph 1016.3mb 69f
2:20pm  -  1 mph 1016.6mb 71f
2:10pm  -  3 mph 1016.6mb 72f
2:00pm  -  3 mph 1016.6mb 72f
1:50pm  -  3 mph 1016.9mb 71f
1:40pm  -  3 mph 1016.9mb 70f
1:30pm 2 5 mph 1016.6mb 69f
1:20pm 1 5 mph 1016.9mb 71f
1:10pm 5
mph
1016.9mb 70f
1:00pm  -  5 mph 1016.9mb 72f
12:50pm 2 5 mph 1017.3mb 72f
12:40pm 1 3 mph 1017.3mb 71f
12:30pm  -  2 mph 1017.3mb 70f
12:20pm 2
mph
1017.3mb 70f
12:10pm 1 3 mph 1017.6mb 68f
12:00pm 3 6 mph 1017.6mb 68f
11:50am 3 5 mph 1017.6mb 70f
11:40am 5
mph
1017.6mb 70f
11:30am 2 5 mph 1017.6mb 69f
11:20am 2 6 mph 1017.6mb -
11:10am 2 3 mph 1017.6mb -
11:00am 3 7 mph 1017.6mb -
10:50am 6 9 mph 1017.6mb -
10:40am 7 10 mph 1017.6mb -
10:30am 5 7 mph 1017.6mb 78f
10:20am 2 5 mph 1017.6mb 78f
10:10am 2 5 mph 1017.6mb 78f
10:00am 2 8 mph 1017.6mb 77f
9:50am 3 8 mph 1017.6mb 77f
9:40am 2 7 mph 1017.6mb 76f
9:30am 2 5 mph 1017.9mb 76f
9:20am 2 6 mph 1017.9mb 75f
9:10am 3 7 mph 1017.9mb 74f
9:00am 2 7 mph 1018.3mb 74f
8:50am 3 6 mph 1018.3mb 73f
8:40am 2 6 mph 1018.3mb 72f
8:30am 2 5 mph 1018.3mb 70f
8:20am 1 2 mph 1018.6mb 66f
8:10am  -  5 mph 1018.6mb 65f
8:00am 2 3 mph 1018.6mb 64f
7:50am  -  2 mph 1018.6mb 63f
7:40am  -  1 mph 1018.6mb 63f
7:30am  -  2 mph 1019mb 65f
7:20am  -  3 mph 1019mb 65f
7:10am 1 3 mph 1019mb 67f
7:00am 1 5 mph 1018.6mb 68f
6:50am 2 6 mph 1018.6mb 67f
6:40am 1 5 mph 1018.6mb 68f
6:30am 2 8 mph 1018.6mb 69f
6:20am 2 7 mph 1018.6mb 69f
6:10am 3 8 mph 1018.6mb 69f
6:00am 5 8 mph 1018.6mb 69f
5:50am 3 8 mph 1018.6mb 69f
5:40am 5 9 mph 1018.6mb 69f
5:30am 5 9 mph 1018.6mb 69f
5:20am 2 8 mph 1018.6mb 69f
5:10am 3 9 mph 1018.6mb 69f
5:00am 3 7 mph 1018.6mb 69f
4:50am 5 9 mph 1018.6mb 69f
4:40am 3 8 mph 1018.6mb 69f
4:30am 3 8 mph 1018.6mb 69f
4:20am 3 7 mph 1018.6mb 69f
4:10am 3 8 mph 1018.6mb 69f
4:00am 5 9 mph 1019mb 69f
3:50am 2 7 mph 1018.6mb 69f
3:40am 3 8 mph 1018.6mb 70f
3:30am 2 10 mph 1018.6mb 70f
3:20am 2 8 mph 1018.6mb 70f
3:10am 2 9 mph 1018.6mb 70f
3:00am 3 11 mph 1018.6mb 70f
2:50am 5 13 mph 1018.6mb 70f
2:40am 2 10 mph 1018.6mb 70f
2:30am 6 8 mph 1018.6mb 70f
2:20am 3 7 mph 1018.6mb 70f
2:10am 5 9 mph 1018.6mb 70f
2:00am 2 7 mph 1018.6mb 70f
1:50am 3 13 mph 1019mb 70f
1:40am 5 10 mph 1019mb 70f
1:30am 5 10 mph 1019mb 70f
1:20am 3 8 mph 1018.6mb 70f
1:10am 5 10 mph 1018.6mb 70f
1:00am 7 10 mph 1018.6mb 70f
12:50am 3 10 mph 1019mb 71f
12:40am 5 11 mph 1018.6mb 71f
12:30am 6 14 mph 1019mb 71f
12:20am 5 14 mph 1019mb 71f
12:10am 7 11 mph 1019mb 70f
12:00am 9 15 mph 1019mb 70f
Sat 09/27 11:50pm 7 13 mph 1018.6mb 70f
11:40pm 5 13 mph 1018.6mb 70f
11:30pm 6 15 mph 1019mb 70f
11:20pm 8 13 mph 1019mb 70f
11:10pm 6 13 mph 1019mb 70f
11:00pm 8 13 mph 1019mb 70f
10:50pm 5 11 mph 1019mb 70f
10:40pm 6 11 mph 1019mb 70f
10:30pm 5 11 mph 1019mb 70f
10:20pm 3 9 mph 1019mb 70f
10:10pm 5 10 mph 1019mb 69f
10:00pm 3 7 mph 1019mb 69f
9:50pm 3 8 mph 1019mb 69f
9:40pm 2 6 mph 1019mb 69f
9:30pm 3 7 mph 1019mb 69f
9:20pm 3 8 mph 1019mb 69f
9:10pm 3 7 mph 1019mb 68f
9:00pm 3 6 mph 1019mb 64f